sensor_id;sensor_type;location;lat;lon;timestamp;pressure;altitude;pressure_sealevel;temperature;humidity
72066;BME280;59939;52.516;13.420;2022-10-31T00:01:30;100846.06;;;18.19;65.84
72066;BME280;59939;52.516;13.420;2022-10-31T00:04:34;100838.13;;;17.50;68.67
72066;BME280;59939;52.516;13.420;2022-10-31T00:07:38;100840.38;;;17.08;70.73
72066;BME280;59939;52.516;13.420;2022-10-31T00:10:43;100840.59;;;17.27;69.92
72066;BME280;59939;52.516;13.420;2022-10-31T00:13:48;100841.06;;;17.17;70.07
72066;BME280;59939;52.516;13.420;2022-10-31T00:16:52;100847.44;;;16.93;71.09
72066;BME280;59939;52.516;13.420;2022-10-31T00:19:56;100849.63;;;17.00;70.60
72066;BME280;59939;52.516;13.420;2022-10-31T00:23:01;100854.72;;;17.10;69.92
72066;BME280;59939;52.516;13.420;2022-10-31T00:26:06;100847.50;;;17.33;68.74
72066;BME280;59939;52.516;13.420;2022-10-31T00:29:11;100851.69;;;17.15;69.70
72066;BME280;59939;52.516;13.420;2022-10-31T00:32:19;100851.84;;;17.58;68.14
72066;BME280;59939;52.516;13.420;2022-10-31T00:35:25;100851.59;;;17.76;66.77
72066;BME280;59939;52.516;13.420;2022-10-31T00:38:29;100856.66;;;17.34;68.29
72066;BME280;59939;52.516;13.420;2022-10-31T00:41:32;100853.22;;;17.77;66.35
72066;BME280;59939;52.516;13.420;2022-10-31T00:44:39;100855.69;;;17.54;67.44
72066;BME280;59939;52.516;13.420;2022-10-31T00:47:43;100860.75;;;17.52;67.11
72066;BME280;59939;52.516;13.420;2022-10-31T00:50:47;100863.72;;;17.07;69.18
72066;BME280;59939;52.516;13.420;2022-10-31T00:53:51;100863.47;;;17.24;68.62
72066;BME280;59939;52.516;13.420;2022-10-31T00:56:54;100864.13;;;17.45;67.29
72066;BME280;59939;52.516;13.420;2022-10-31T01:00:00;100869.03;;;17.00;69.21
72066;BME280;59939;52.516;13.420;2022-10-31T01:03:06;100875.03;;;17.14;68.65
72066;BME280;59939;52.516;13.420;2022-10-31T01:06:14;100872.59;;;17.12;68.44
72066;BME280;59939;52.516;13.420;2022-10-31T01:09:20;100876.75;;;17.18;68.20
72066;BME280;59939;52.516;13.420;2022-10-31T01:12:26;100882.41;;;17.22;68.21
72066;BME280;59939;52.516;13.420;2022-10-31T01:15:43;100882.97;;;17.40;67.06
72066;BME280;59939;52.516;13.420;2022-10-31T01:18:50;100880.75;;;17.57;66.32
72066;BME280;59939;52.516;13.420;2022-10-31T01:21:55;100883.78;;;17.40;66.77
72066;BME280;59939;52.516;13.420;2022-10-31T01:25:01;100878.84;;;17.34;66.79
72066;BME280;59939;52.516;13.420;2022-10-31T01:28:05;100887.97;;;17.22;67.55
72066;BME280;59939;52.516;13.420;2022-10-31T01:31:11;100874.31;;;17.41;66.89
72066;BME280;59939;52.516;13.420;2022-10-31T01:34:16;100869.53;;;17.66;65.42
72066;BME280;59939;52.516;13.420;2022-10-31T01:37:22;100882.81;;;17.60;65.78
72066;BME280;59939;52.516;13.420;2022-10-31T01:40:29;100881.31;;;17.63;65.85
72066;BME280;59939;52.516;13.420;2022-10-31T01:43:56;100879.69;;;17.62;65.84
72066;BME280;59939;52.516;13.420;2022-10-31T01:47:17;100879.16;;;17.44;66.46
72066;BME280;59939;52.516;13.420;2022-10-31T01:50:49;100876.16;;;17.49;66.30
72066;BME280;59939;52.516;13.420;2022-10-31T01:54:04;100873.69;;;17.72;65.37
72066;BME280;59939;52.516;13.420;2022-10-31T01:57:12;100883.97;;;17.72;65.11
72066;BME280;59939;52.516;13.420;2022-10-31T02:00:20;100885.53;;;17.33;66.96
72066;BME280;59939;52.516;13.420;2022-10-31T02:03:25;100891.88;;;17.33;67.09
72066;BME280;59939;52.516;13.420;2022-10-31T02:06:41;100896.41;;;17.13;67.60
72066;BME280;59939;52.516;13.420;2022-10-31T02:09:56;100891.78;;;17.17;67.58
72066;BME280;59939;52.516;13.420;2022-10-31T02:13:03;100895.03;;;17.19;67.16
72066;BME280;59939;52.516;13.420;2022-10-31T02:16:09;100897.53;;;17.37;66.60
72066;BME280;59939;52.516;13.420;2022-10-31T02:19:22;100892.09;;;17.52;65.73
72066;BME280;59939;52.516;13.420;2022-10-31T02:26:11;100886.66;;;17.44;65.91
72066;BME280;59939;52.516;13.420;2022-10-31T02:32:57;100884.72;;;17.32;65.99
72066;BME280;59939;52.516;13.420;2022-10-31T02:36:19;100882.25;;;17.55;65.04
72066;BME280;59939;52.516;13.420;2022-10-31T02:39:37;100882.59;;;17.53;65.30
72066;BME280;59939;52.516;13.420;2022-10-31T02:46:44;100888.84;;;17.63;64.78
72066;BME280;59939;52.516;13.420;2022-10-31T02:49:56;100885.41;;;17.41;65.36
72066;BME280;59939;52.516;13.420;2022-10-31T02:53:02;100890.63;;;17.31;65.74
72066;BME280;59939;52.516;13.420;2022-10-31T02:56:19;100899.53;;;17.12;66.73
72066;BME280;59939;52.516;13.420;2022-10-31T02:59:23;100897.69;;;16.91;67.52
72066;BME280;59939;52.516;13.420;2022-10-31T03:03:00;100909.00;;;16.86;67.52
72066;BME280;59939;52.516;13.420;2022-10-31T03:06:40;100907.72;;;16.96;67.43
72066;BME280;59939;52.516;13.420;2022-10-31T03:09:51;100905.84;;;16.63;67.78
72066;BME280;59939;52.516;13.420;2022-10-31T03:16:40;100911.53;;;16.67;67.68
72066;BME280;59939;52.516;13.420;2022-10-31T03:19:52;100917.06;;;16.67;67.63
72066;BME280;59939;52.516;13.420;2022-10-31T03:22:59;100918.25;;;16.78;67.04
72066;BME280;59939;52.516;13.420;2022-10-31T03:26:06;100920.44;;;16.73;67.36
72066;BME280;59939;52.516;13.420;2022-10-31T03:29:38;100929.50;;;16.61;67.66
72066;BME280;59939;52.516;13.420;2022-10-31T03:32:48;100929.78;;;16.68;67.29
72066;BME280;59939;52.516;13.420;2022-10-31T03:35:55;100938.22;;;16.84;66.55
72066;BME280;59939;52.516;13.420;2022-10-31T03:39:04;100936.59;;;16.71;66.78
72066;BME280;59939;52.516;13.420;2022-10-31T03:42:15;100942.03;;;16.46;67.67
72066;BME280;59939;52.516;13.420;2022-10-31T03:45:28;100949.53;;;16.46;67.78
72066;BME280;59939;52.516;13.420;2022-10-31T03:48:33;100953.94;;;16.59;67.49
72066;BME280;59939;52.516;13.420;2022-10-31T03:55:19;100945.19;;;16.57;67.04
72066;BME280;59939;52.516;13.420;2022-10-31T03:58:29;100950.72;;;16.57;67.00
72066;BME280;59939;52.516;13.420;2022-10-31T04:01:39;100957.16;;;16.49;67.34
72066;BME280;59939;52.516;13.420;2022-10-31T04:04:46;100957.19;;;16.61;66.78
72066;BME280;59939;52.516;13.420;2022-10-31T04:07:57;100958.72;;;16.38;67.52
72066;BME280;59939;52.516;13.420;2022-10-31T04:11:11;100955.41;;;16.44;67.42
72066;BME280;59939;52.516;13.420;2022-10-31T04:14:17;100954.47;;;16.73;66.38
72066;BME280;59939;52.516;13.420;2022-10-31T04:17:27;100955.75;;;16.76;66.18
72066;BME280;59939;52.516;13.420;2022-10-31T04:20:39;100957.25;;;16.73;65.96
72066;BME280;59939;52.516;13.420;2022-10-31T04:23:45;100961.75;;;16.66;66.45
72066;BME280;59939;52.516;13.420;2022-10-31T04:26:58;100965.56;;;16.73;66.44
72066;BME280;59939;52.516;13.420;2022-10-31T04:30:04;100961.19;;;16.84;66.03
72066;BME280;59939;52.516;13.420;2022-10-31T04:33:13;100964.78;;;16.97;65.28
72066;BME280;59939;52.516;13.420;2022-10-31T04:36:22;100970.34;;;17.21;64.36
72066;BME280;59939;52.516;13.420;2022-10-31T04:39:26;100972.88;;;16.90;65.19
72066;BME280;59939;52.516;13.420;2022-10-31T04:42:48;100969.66;;;17.12;64.52
72066;BME280;59939;52.516;13.420;2022-10-31T04:45:53;100972.78;;;17.23;63.37
72066;BME280;59939;52.516;13.420;2022-10-31T04:48:57;100978.31;;;17.23;64.06
72066;BME280;59939;52.516;13.420;2022-10-31T04:52:15;100979.03;;;17.69;61.81
72066;BME280;59939;52.516;13.420;2022-10-31T04:55:19;100977.63;;;17.50;63.02
72066;BME280;59939;52.516;13.420;2022-10-31T04:58:46;100974.41;;;17.48;62.59
72066;BME280;59939;52.516;13.420;2022-10-31T05:01:51;100977.31;;;18.16;60.61
72066;BME280;59939;52.516;13.420;2022-10-31T05:05:21;100974.41;;;17.48;62.93
72066;BME280;59939;52.516;13.420;2022-10-31T05:08:27;100979.47;;;17.22;63.68
72066;BME280;59939;52.516;13.420;2022-10-31T05:11:32;100970.91;;;17.15;64.03
72066;BME280;59939;52.516;13.420;2022-10-31T05:14:47;100983.16;;;17.14;63.81
72066;BME280;59939;52.516;13.420;2022-10-31T05:18:12;100979.13;;;17.23;63.56
72066;BME280;59939;52.516;13.420;2022-10-31T05:21:31;100985.34;;;16.96;64.85
72066;BME280;59939;52.516;13.420;2022-10-31T05:24:39;100990.09;;;16.62;66.34
72066;BME280;59939;52.516;13.420;2022-10-31T05:27:51;100983.34;;;16.51;66.67
72066;BME280;59939;52.516;13.420;2022-10-31T05:30:56;100986.25;;;16.55;66.77
72066;BME280;59939;52.516;13.420;2022-10-31T05:33:59;100993.78;;;17.12;64.36
72066;BME280;59939;52.516;13.420;2022-10-31T05:37:22;100991.47;;;16.89;65.20
72066;BME280;59939;52.516;13.420;2022-10-31T05:40:33;100990.22;;;17.11;64.41
72066;BME280;59939;52.516;13.420;2022-10-31T05:43:38;100990.66;;;17.01;65.04
72066;BME280;59939;52.516;13.420;2022-10-31T05:46:43;100987.44;;;17.11;64.39
72066;BME280;59939;52.516;13.420;2022-10-31T05:50:13;100970.69;;;17.08;63.91
72066;BME280;59939;52.516;13.420;2022-10-31T05:53:34;101002.91;;;17.00;64.90
72066;BME280;59939;52.516;13.420;2022-10-31T05:56:39;100998.59;;;16.90;65.70
72066;BME280;59939;52.516;13.420;2022-10-31T05:59:42;101000.69;;;16.93;65.10
72066;BME280;59939;52.516;13.420;2022-10-31T06:02:47;100997.97;;;17.42;63.20
72066;BME280;59939;52.516;13.420;2022-10-31T06:06:02;101005.56;;;17.09;64.42
72066;BME280;59939;52.516;13.420;2022-10-31T06:09:11;101004.59;;;16.80;65.65
72066;BME280;59939;52.516;13.420;2022-10-31T06:12:16;101010.00;;;17.34;63.95
72066;BME280;59939;52.516;13.420;2022-10-31T06:15:41;101011.28;;;17.85;61.74
72066;BME280;59939;52.516;13.420;2022-10-31T06:18:46;101011.38;;;17.89;61.12
72066;BME280;59939;52.516;13.420;2022-10-31T06:21:49;101011.84;;;17.30;63.87
72066;BME280;59939;52.516;13.420;2022-10-31T06:25:10;101014.16;;;17.52;63.01
72066;BME280;59939;52.516;13.420;2022-10-31T06:28:21;101015.97;;;17.12;64.69
72066;BME280;59939;52.516;13.420;2022-10-31T06:31:46;101014.81;;;17.25;64.44
72066;BME280;59939;52.516;13.420;2022-10-31T06:34:50;101024.25;;;17.69;62.52
72066;BME280;59939;52.516;13.420;2022-10-31T06:37:57;101028.41;;;17.75;62.67
72066;BME280;59939;52.516;13.420;2022-10-31T06:41:11;101028.19;;;18.20;60.50
72066;BME280;59939;52.516;13.420;2022-10-31T06:44:20;101036.63;;;18.64;58.72
72066;BME280;59939;52.516;13.420;2022-10-31T06:47:56;101037.09;;;19.10;57.00
72066;BME280;59939;52.516;13.420;2022-10-31T06:51:38;101034.63;;;19.87;54.56
72066;BME280;59939;52.516;13.420;2022-10-31T06:54:42;101045.44;;;19.41;56.41
72066;BME280;59939;52.516;13.420;2022-10-31T06:58:02;101054.66;;;18.70;58.37
72066;BME280;59939;52.516;13.420;2022-10-31T07:01:08;101048.88;;;20.01;54.66
72066;BME280;59939;52.516;13.420;2022-10-31T07:04:16;101058.31;;;20.32;52.96
72066;BME280;59939;52.516;13.420;2022-10-31T07:07:22;101065.19;;;19.52;55.39
72066;BME280;59939;52.516;13.420;2022-10-31T07:10:28;101062.59;;;19.43;56.22
72066;BME280;59939;52.516;13.420;2022-10-31T07:13:38;101064.75;;;19.66;55.39
72066;BME280;59939;52.516;13.420;2022-10-31T07:16:43;101055.59;;;19.65;55.51
72066;BME280;59939;52.516;13.420;2022-10-31T07:19:50;101062.13;;;19.73;55.57
72066;BME280;59939;52.516;13.420;2022-10-31T07:22:55;101068.88;;;19.40;57.02
72066;BME280;59939;52.516;13.420;2022-10-31T07:26:09;101064.75;;;19.66;55.76
72066;BME280;59939;52.516;13.420;2022-10-31T07:29:23;101064.28;;;19.79;55.79
72066;BME280;59939;52.516;13.420;2022-10-31T07:32:42;101061.78;;;19.43;57.25
72066;BME280;59939;52.516;13.420;2022-10-31T07:35:49;101069.44;;;20.12;54.57
72066;BME280;59939;52.516;13.420;2022-10-31T07:39:05;101071.03;;;19.63;56.13
72066;BME280;59939;52.516;13.420;2022-10-31T07:42:23;101069.00;;;20.45;53.52
72066;BME280;59939;52.516;13.420;2022-10-31T07:45:28;101064.09;;;19.25;57.32
72066;BME280;59939;52.516;13.420;2022-10-31T07:48:51;101078.91;;;20.62;53.74
72066;BME280;59939;52.516;13.420;2022-10-31T07:52:14;101082.06;;;20.61;53.61
72066;BME280;59939;52.516;13.420;2022-10-31T07:55:41;101081.41;;;20.32;54.54
72066;BME280;59939;52.516;13.420;2022-10-31T07:58:49;101089.09;;;17.77;62.95
72066;BME280;59939;52.516;13.420;2022-10-31T08:01:53;101096.41;;;18.46;60.62
72066;BME280;59939;52.516;13.420;2022-10-31T08:05:17;101101.22;;;18.73;60.03
72066;BME280;59939;52.516;13.420;2022-10-31T08:08:55;101111.38;;;20.19;55.68
72066;BME280;59939;52.516;13.420;2022-10-31T08:11:59;101115.47;;;18.59;60.50
72066;BME280;59939;52.516;13.420;2022-10-31T08:15:04;101110.50;;;18.01;63.30
72066;BME280;59939;52.516;13.420;2022-10-31T08:18:17;101103.91;;;18.17;62.20
72066;BME280;59939;52.516;13.420;2022-10-31T08:21:28;101106.00;;;18.48;61.68
72066;BME280;59939;52.516;13.420;2022-10-31T08:24:34;101111.72;;;18.80;60.42
72066;BME280;59939;52.516;13.420;2022-10-31T08:27:59;101108.75;;;19.01;59.88
72066;BME280;59939;52.516;13.420;2022-10-31T08:31:03;101106.13;;;18.40;60.88
72066;BME280;59939;52.516;13.420;2022-10-31T08:34:34;101127.81;;;18.86;59.87
72066;BME280;59939;52.516;13.420;2022-10-31T08:37:59;101117.78;;;18.98;59.70
72066;BME280;59939;52.516;13.420;2022-10-31T08:41:06;101123.59;;;18.93;59.52
72066;BME280;59939;52.516;13.420;2022-10-31T08:44:10;101118.06;;;19.52;57.66
72066;BME280;59939;52.516;13.420;2022-10-31T08:47:14;101104.88;;;19.65;57.41
72066;BME280;59939;52.516;13.420;2022-10-31T08:50:17;101104.31;;;20.06;55.78
72066;BME280;59939;52.516;13.420;2022-10-31T08:53:23;101105.09;;;21.84;51.08
72066;BME280;59939;52.516;13.420;2022-10-31T08:56:40;101100.25;;;22.94;47.89
72066;BME280;59939;52.516;13.420;2022-10-31T09:00:04;101095.22;;;24.53;43.12
72066;BME280;59939;52.516;13.420;2022-10-31T09:03:29;101106.31;;;22.99;47.10
72066;BME280;59939;52.516;13.420;2022-10-31T09:06:36;101116.44;;;24.51;43.34
72066;BME280;59939;52.516;13.420;2022-10-31T09:09:41;101115.06;;;22.64;47.13
72066;BME280;59939;52.516;13.420;2022-10-31T09:12:46;101106.06;;;22.48;47.80
72066;BME280;59939;52.516;13.420;2022-10-31T09:16:08;101120.00;;;22.18;48.95
72066;BME280;59939;52.516;13.420;2022-10-31T09:19:12;101119.22;;;21.26;51.19
72066;BME280;59939;52.516;13.420;2022-10-31T09:22:21;101127.66;;;23.11;47.52
72066;BME280;59939;52.516;13.420;2022-10-31T09:25:26;101122.03;;;23.92;45.05
72066;BME280;59939;52.516;13.420;2022-10-31T09:28:56;101120.38;;;26.08;39.79
72066;BME280;59939;52.516;13.420;2022-10-31T09:32:06;101133.97;;;23.04;45.91
72066;BME280;59939;52.516;13.420;2022-10-31T09:35:16;101136.63;;;23.27;45.77
72066;BME280;59939;52.516;13.420;2022-10-31T09:38:23;101136.84;;;24.48;43.59
72066;BME280;59939;52.516;13.420;2022-10-31T09:45:18;101136.06;;;24.51;42.12
72066;BME280;59939;52.516;13.420;2022-10-31T09:48:59;101142.81;;;22.50;47.63
72066;BME280;59939;52.516;13.420;2022-10-31T09:52:30;101152.66;;;22.67;47.61
72066;BME280;59939;52.516;13.420;2022-10-31T09:55:47;101149.31;;;22.84;47.36
72066;BME280;59939;52.516;13.420;2022-10-31T09:59:03;101150.34;;;21.70;49.92
72066;BME280;59939;52.516;13.420;2022-10-31T10:02:24;101139.56;;;23.82;44.85
72066;BME280;59939;52.516;13.420;2022-10-31T10:05:36;101131.84;;;26.88;38.41
72066;BME280;59939;52.516;13.420;2022-10-31T10:08:57;101123.97;;;29.03;34.46
72066;BME280;59939;52.516;13.420;2022-10-31T10:12:47;101136.44;;;26.43;38.80
72066;BME280;59939;52.516;13.420;2022-10-31T10:16:48;101132.88;;;29.01;33.86
72066;BME280;59939;52.516;13.420;2022-10-31T10:20:13;101130.94;;;27.78;35.73
72066;BME280;59939;52.516;13.420;2022-10-31T10:30:18;101121.53;;;25.18;41.43
72066;BME280;59939;52.516;13.420;2022-10-31T10:33:31;101113.63;;;28.21;35.49
72066;BME280;59939;52.516;13.420;2022-10-31T10:36:47;101114.34;;;28.32;34.73
72066;BME280;59939;52.516;13.420;2022-10-31T10:40:13;101098.50;;;31.26;29.78
72066;BME280;59939;52.516;13.420;2022-10-31T10:43:22;101093.63;;;31.26;29.68
72066;BME280;59939;52.516;13.420;2022-10-31T10:46:42;101093.47;;;30.97;30.60
72066;BME280;59939;52.516;13.420;2022-10-31T10:50:24;101090.28;;;30.95;30.38
72066;BME280;59939;52.516;13.420;2022-10-31T10:53:39;101088.28;;;32.55;27.73
72066;BME280;59939;52.516;13.420;2022-10-31T10:57:27;101093.03;;;31.51;29.32
72066;BME280;59939;52.516;13.420;2022-10-31T11:00:42;101092.53;;;32.75;27.30
72066;BME280;59939;52.516;13.420;2022-10-31T11:03:46;101093.31;;;33.43;26.74
72066;BME280;59939;52.516;13.420;2022-10-31T11:10:30;101095.94;;;32.13;28.76
72066;BME280;59939;52.516;13.420;2022-10-31T11:13:36;101088.25;;;32.84;27.73
72066;BME280;59939;52.516;13.420;2022-10-31T11:16:42;101087.09;;;31.62;29.45
72066;BME280;59939;52.516;13.420;2022-10-31T11:19:47;101075.81;;;32.07;28.26
72066;BME280;59939;52.516;13.420;2022-10-31T11:23:01;101069.28;;;32.52;28.08
72066;BME280;59939;52.516;13.420;2022-10-31T11:26:19;101060.13;;;30.06;31.78
72066;BME280;59939;52.516;13.420;2022-10-31T11:29:25;101060.97;;;33.62;26.53
72066;BME280;59939;52.516;13.420;2022-10-31T11:32:30;101071.91;;;33.00;27.32
72066;BME280;59939;52.516;13.420;2022-10-31T11:35:39;101066.78;;;32.95;27.36
72066;BME280;59939;52.516;13.420;2022-10-31T11:38:43;101062.47;;;33.54;26.99
72066;BME280;59939;52.516;13.420;2022-10-31T11:41:48;101066.34;;;33.22;26.77
72066;BME280;59939;52.516;13.420;2022-10-31T11:44:54;101071.53;;;32.15;28.66
72066;BME280;59939;52.516;13.420;2022-10-31T11:47:59;101068.59;;;32.89;27.48
72066;BME280;59939;52.516;13.420;2022-10-31T11:51:08;101070.91;;;32.65;27.27
72066;BME280;59939;52.516;13.420;2022-10-31T11:54:24;101064.75;;;31.31;29.76
72066;BME280;59939;52.516;13.420;2022-10-31T11:57:42;101063.50;;;30.80;31.13
72066;BME280;59939;52.516;13.420;2022-10-31T12:00:50;101062.50;;;30.70;30.96
72066;BME280;59939;52.516;13.420;2022-10-31T12:04:07;101063.56;;;28.29;34.85
72066;BME280;59939;52.516;13.420;2022-10-31T12:07:11;101068.66;;;28.03;35.95
72066;BME280;59939;52.516;13.420;2022-10-31T12:10:15;101058.41;;;29.42;33.31
72066;BME280;59939;52.516;13.420;2022-10-31T12:13:32;101070.00;;;27.40;37.29
72066;BME280;59939;52.516;13.420;2022-10-31T12:16:51;101055.53;;;29.18;33.73
72066;BME280;59939;52.516;13.420;2022-10-31T12:23:32;101057.72;;;31.03;31.01
72066;BME280;59939;52.516;13.420;2022-10-31T12:34:06;101037.66;;;30.78;31.64
72066;BME280;59939;52.516;13.420;2022-10-31T12:41:12;101035.06;;;29.84;32.81
72066;BME280;59939;52.516;13.420;2022-10-31T12:44:49;101033.44;;;30.07;32.57
72066;BME280;59939;52.516;13.420;2022-10-31T12:51:43;101031.41;;;28.22;36.04
72066;BME280;59939;52.516;13.420;2022-10-31T12:58:34;101024.00;;;29.70;33.13
72066;BME280;59939;52.516;13.420;2022-10-31T13:08:39;101013.19;;;30.28;32.28
72066;BME280;59939;52.516;13.420;2022-10-31T13:11:57;101018.78;;;29.18;33.97
72066;BME280;59939;52.516;13.420;2022-10-31T13:15:15;101018.34;;;28.36;35.69
72066;BME280;59939;52.516;13.420;2022-10-31T13:18:33;101026.16;;;28.21;36.09
72066;BME280;59939;52.516;13.420;2022-10-31T13:22:03;101018.75;;;28.34;36.15
72066;BME280;59939;52.516;13.420;2022-10-31T13:25:15;101014.25;;;28.40;35.72
72066;BME280;59939;52.516;13.420;2022-10-31T13:31:50;101013.34;;;27.75;37.07
72066;BME280;59939;52.516;13.420;2022-10-31T13:34:56;101011.41;;;27.65;37.48
72066;BME280;59939;52.516;13.420;2022-10-31T13:38:10;101011.44;;;28.03;36.68
72066;BME280;59939;52.516;13.420;2022-10-31T13:44:53;101005.31;;;29.03;34.74
72066;BME280;59939;52.516;13.420;2022-10-31T13:51:27;101001.16;;;29.11;35.00
72066;BME280;59939;52.516;13.420;2022-10-31T13:54:33;100997.25;;;28.10;36.20
72066;BME280;59939;52.516;13.420;2022-10-31T13:57:41;101004.38;;;27.39;38.13
72066;BME280;59939;52.516;13.420;2022-10-31T14:01:20;100992.84;;;28.09;36.59
72066;BME280;59939;52.516;13.420;2022-10-31T14:04:37;100994.00;;;26.70;39.31
72066;BME280;59939;52.516;13.420;2022-10-31T14:07:45;100991.78;;;26.19;40.62
72066;BME280;59939;52.516;13.420;2022-10-31T14:10:53;100993.16;;;25.18;43.04
72066;BME280;59939;52.516;13.420;2022-10-31T14:13:59;100985.53;;;25.58;41.99
72066;BME280;59939;52.516;13.420;2022-10-31T14:17:16;100987.13;;;25.38;42.94
72066;BME280;59939;52.516;13.420;2022-10-31T14:20:39;100977.91;;;25.44;43.04
72066;BME280;59939;52.516;13.420;2022-10-31T14:23:43;100984.38;;;26.64;40.25
72066;BME280;59939;52.516;13.420;2022-10-31T14:30:17;100982.06;;;26.48;40.84
72066;BME280;59939;52.516;13.420;2022-10-31T14:33:29;100982.75;;;23.45;48.70
72066;BME280;59939;52.516;13.420;2022-10-31T14:36:54;100978.22;;;22.49;52.02
72066;BME280;59939;52.516;13.420;2022-10-31T14:51:02;100975.81;;;20.89;57.75
72066;BME280;59939;52.516;13.420;2022-10-31T14:54:17;100973.38;;;21.82;54.83
72066;BME280;59939;52.516;13.420;2022-10-31T14:57:25;100969.72;;;21.52;55.95
72066;BME280;59939;52.516;13.420;2022-10-31T15:00:32;100977.75;;;21.07;56.72
72066;BME280;59939;52.516;13.420;2022-10-31T15:03:44;100972.09;;;21.49;55.42
72066;BME280;59939;52.516;13.420;2022-10-31T15:07:05;100962.38;;;21.40;56.03
72066;BME280;59939;52.516;13.420;2022-10-31T15:10:32;100968.53;;;21.79;54.74
72066;BME280;59939;52.516;13.420;2022-10-31T15:13:42;100963.94;;;21.37;55.85
72066;BME280;59939;52.516;13.420;2022-10-31T15:16:56;100959.47;;;21.10;56.83
72066;BME280;59939;52.516;13.420;2022-10-31T15:20:03;100960.38;;;20.95;57.52
72066;BME280;59939;52.516;13.420;2022-10-31T15:23:10;100959.22;;;20.96;57.76
72066;BME280;59939;52.516;13.420;2022-10-31T15:26:23;100962.94;;;20.80;57.60
72066;BME280;59939;52.516;13.420;2022-10-31T15:29:27;100957.47;;;20.88;57.63
72066;BME280;59939;52.516;13.420;2022-10-31T15:32:33;100953.13;;;21.13;56.68
72066;BME280;59939;52.516;13.420;2022-10-31T15:35:37;100953.94;;;21.13;56.92
72066;BME280;59939;52.516;13.420;2022-10-31T15:38:42;100961.75;;;20.59;58.73
72066;BME280;59939;52.516;13.420;2022-10-31T15:41:52;100955.50;;;21.11;56.78
72066;BME280;59939;52.516;13.420;2022-10-31T15:45:04;100957.34;;;19.65;61.53
72066;BME280;59939;52.516;13.420;2022-10-31T15:48:24;100959.13;;;18.90;65.17
72066;BME280;59939;52.516;13.420;2022-10-31T15:51:33;100956.41;;;18.78;65.94
72066;BME280;59939;52.516;13.420;2022-10-31T15:54:45;100959.28;;;19.29;64.18
72066;BME280;59939;52.516;13.420;2022-10-31T15:58:11;100957.31;;;19.30;63.81
72066;BME280;59939;52.516;13.420;2022-10-31T16:01:24;100964.91;;;20.18;60.17
72066;BME280;59939;52.516;13.420;2022-10-31T16:04:29;100960.19;;;19.84;61.12
72066;BME280;59939;52.516;13.420;2022-10-31T16:07:34;100964.22;;;19.86;61.93
72066;BME280;59939;52.516;13.420;2022-10-31T16:10:37;100963.22;;;20.14;60.58
72066;BME280;59939;52.516;13.420;2022-10-31T16:13:53;100956.13;;;21.01;57.69
72066;BME280;59939;52.516;13.420;2022-10-31T16:16:58;100967.41;;;21.08;56.62
72066;BME280;59939;52.516;13.420;2022-10-31T16:20:06;100964.28;;;21.13;56.75
72066;BME280;59939;52.516;13.420;2022-10-31T16:23:16;100973.56;;;19.78;60.67
72066;BME280;59939;52.516;13.420;2022-10-31T16:26:21;100971.31;;;19.84;61.32
72066;BME280;59939;52.516;13.420;2022-10-31T16:29:33;100974.13;;;20.03;60.80
72066;BME280;59939;52.516;13.420;2022-10-31T16:32:59;100966.31;;;19.74;61.71
72066;BME280;59939;52.516;13.420;2022-10-31T16:36:33;100976.31;;;19.94;61.00
72066;BME280;59939;52.516;13.420;2022-10-31T16:39:41;100966.78;;;20.72;58.17
72066;BME280;59939;52.516;13.420;2022-10-31T16:42:45;100970.38;;;19.96;60.45
72066;BME280;59939;52.516;13.420;2022-10-31T16:45:52;100962.25;;;19.36;62.75
72066;BME280;59939;52.516;13.420;2022-10-31T16:48:56;100960.97;;;19.84;61.34
72066;BME280;59939;52.516;13.420;2022-10-31T16:52:00;100956.75;;;19.91;60.90
72066;BME280;59939;52.516;13.420;2022-10-31T16:55:13;100949.41;;;19.32;63.30
72066;BME280;59939;52.516;13.420;2022-10-31T16:58:21;100966.13;;;19.00;64.42
72066;BME280;59939;52.516;13.420;2022-10-31T17:01:34;100953.44;;;18.71;66.00
72066;BME280;59939;52.516;13.420;2022-10-31T17:04:38;100956.53;;;18.98;64.46
72066;BME280;59939;52.516;13.420;2022-10-31T17:07:43;100951.63;;;18.63;65.79
72066;BME280;59939;52.516;13.420;2022-10-31T17:10:50;100943.22;;;19.22;63.96
72066;BME280;59939;52.516;13.420;2022-10-31T17:13:54;100946.44;;;19.40;63.15
72066;BME280;59939;52.516;13.420;2022-10-31T17:17:00;100953.09;;;18.45;66.25
72066;BME280;59939;52.516;13.420;2022-10-31T17:20:17;100957.03;;;18.44;67.02
72066;BME280;59939;52.516;13.420;2022-10-31T17:23:21;100953.44;;;18.43;67.10
72066;BME280;59939;52.516;13.420;2022-10-31T17:26:25;100951.09;;;18.02;68.52
72066;BME280;59939;52.516;13.420;2022-10-31T17:29:29;100947.00;;;18.11;68.16
72066;BME280;59939;52.516;13.420;2022-10-31T17:32:33;100947.78;;;18.40;67.09
72066;BME280;59939;52.516;13.420;2022-10-31T17:35:37;100941.09;;;18.56;66.64
72066;BME280;59939;52.516;13.420;2022-10-31T17:38:44;100934.06;;;18.75;66.26
72066;BME280;59939;52.516;13.420;2022-10-31T17:41:51;100935.34;;;18.77;66.00
72066;BME280;59939;52.516;13.420;2022-10-31T17:44:55;100934.78;;;18.00;68.25
72066;BME280;59939;52.516;13.420;2022-10-31T17:47:58;100934.75;;;18.56;66.74
72066;BME280;59939;52.516;13.420;2022-10-31T17:51:03;100932.47;;;18.02;68.57
72066;BME280;59939;52.516;13.420;2022-10-31T17:54:17;100930.00;;;18.29;67.73
72066;BME280;59939;52.516;13.420;2022-10-31T17:57:34;100933.31;;;18.18;67.86